Preston, United Kingdom
Current Conditions -  °F | °C
As of 6:50 AM on Wednesday 28 Jan 2015 (Local Time) from EGNH Reporting Station
Rain Showers Rain Showers  
Wind Chill: 36°   Ceiling: 1200
Heat Index: 46°   Visibility: 6mi
Dew Point: 45°   Wind: 36mph
Humidity: 93%   Direction: 240°WSW
Pressure: 29.44"   Gusts: NA
Location:  53.76°N, 2.71°W
Report Text: EGNH 280650Z 24031KT 9999 SHRA SCT005 BKN012 08/07 Q0997
Loading
Personal Weather Stations






























Interactive Weather Map New forecast layout! Learn more

10-Day Weather Forecast

Advertisements
Track Severe Weather on mobile